createdAt,value
2018-06-23T00:01:11.313Z,13.26
2018-06-23T00:03:39.618Z,13.53
2018-06-23T00:06:08.008Z,13.49
2018-06-23T00:08:36.240Z,13.45
2018-06-23T00:11:04.537Z,13.44
2018-06-23T00:13:32.814Z,13.48
2018-06-23T00:16:01.075Z,13.37
2018-06-23T00:18:29.399Z,13.45
2018-06-23T00:20:57.678Z,13.37
2018-06-23T00:23:25.952Z,13.37
2018-06-23T00:25:59.376Z,13.36
2018-06-23T00:28:27.684Z,13.33
2018-06-23T00:30:55.944Z,13.26
2018-06-23T00:33:24.316Z,13.12
2018-06-23T00:35:52.531Z,13.24
2018-06-23T00:38:20.868Z,13.23
2018-06-23T00:40:49.151Z,13.22
2018-06-23T00:43:17.411Z,13.14
2018-06-23T00:45:45.742Z,13.20
2018-06-23T00:48:14.041Z,13.20
2018-06-23T00:50:42.283Z,12.97
2018-06-23T00:53:10.566Z,13.20
2018-06-23T00:55:38.810Z,13.03
2018-06-23T00:58:07.106Z,12.89
2018-06-23T01:00:35.345Z,12.93
2018-06-23T01:03:03.913Z,13.06
2018-06-23T01:05:32.214Z,13.07
2018-06-23T01:08:00.487Z,12.92
2018-06-23T01:10:28.882Z,13.01
2018-06-23T01:12:57.116Z,12.81
2018-06-23T01:15:25.433Z,12.82
2018-06-23T01:17:53.659Z,13.12
2018-06-23T01:20:21.888Z,13.11
2018-06-23T01:22:50.286Z,13.18
2018-06-23T01:25:18.555Z,13.08
2018-06-23T01:27:46.826Z,13.05
2018-06-23T01:30:15.143Z,13.12
2018-06-23T01:32:43.408Z,13.11
2018-06-23T01:35:11.642Z,13.29
2018-06-23T01:37:39.865Z,13.00
2018-06-23T01:40:08.117Z,13.03
2018-06-23T01:42:36.346Z,13.17
2018-06-23T01:45:04.755Z,13.06
2018-06-23T01:47:32.967Z,13.15
2018-06-23T01:50:01.298Z,13.06
2018-06-23T01:52:29.563Z,13.06
2018-06-23T01:54:57.783Z,13.12
2018-06-23T01:57:26.086Z,13.00
2018-06-23T01:59:54.369Z,13.19
2018-06-23T02:02:22.729Z,13.19
2018-06-23T02:04:51.079Z,13.08
2018-06-23T02:07:19.428Z,13.09
2018-06-23T02:09:47.738Z,13.14
2018-06-23T02:12:16.077Z,13.11
2018-06-23T02:14:49.637Z,13.13
2018-06-23T02:17:23.237Z,13.23
2018-06-23T02:19:56.880Z,13.16
2018-06-23T02:22:30.527Z,13.16
2018-06-23T02:25:04.317Z,13.23
2018-06-23T02:27:37.844Z,13.10
2018-06-23T02:30:11.565Z,13.09
2018-06-23T02:32:43.363Z,13.06
2018-06-23T02:35:11.681Z,13.20
2018-06-23T02:37:40.457Z,13.03
2018-06-23T02:40:08.877Z,12.91
2018-06-23T02:42:37.432Z,13.03
2018-06-23T02:45:06.740Z,12.96
2018-06-23T02:47:35.403Z,12.90
2018-06-23T02:50:03.682Z,13.04
2018-06-23T02:52:32.250Z,12.94
2018-06-23T02:55:00.722Z,12.81
2018-06-23T02:57:29.241Z,12.80
2018-06-23T02:59:57.540Z,12.60
2018-06-23T03:02:26.091Z,12.65
2018-06-23T03:04:54.463Z,12.75
2018-06-23T03:07:22.724Z,12.80
2018-06-23T03:09:50.953Z,12.85
2018-06-23T03:12:19.246Z,12.70
2018-06-23T03:14:47.551Z,12.85
2018-06-23T03:17:17.806Z,12.88
2018-06-23T03:19:50.394Z,12.99
2018-06-23T03:22:18.869Z,12.79
2018-06-23T03:24:47.180Z,12.78
2018-06-23T03:27:15.412Z,12.67
2018-06-23T03:29:43.641Z,12.57
2018-06-23T03:32:12.476Z,12.79
2018-06-23T03:34:40.858Z,12.79
2018-06-23T03:37:09.112Z,12.80
2018-06-23T03:39:37.455Z,12.78
2018-06-23T03:42:06.639Z,12.75
2018-06-23T03:44:34.965Z,12.96
2018-06-23T03:47:03.264Z,12.96
2018-06-23T03:49:31.551Z,13.10
2018-06-23T03:51:59.797Z,12.90
2018-06-23T03:54:28.045Z,12.96
2018-06-23T03:56:56.332Z,13.10
2018-06-23T03:59:24.540Z,12.94
2018-06-23T04:01:52.780Z,12.94
2018-06-23T04:04:21.088Z,13.02
2018-06-23T04:06:49.375Z,12.93
2018-06-23T04:09:17.613Z,12.93
2018-06-23T04:11:45.836Z,12.99
2018-06-23T04:14:14.465Z,12.99
2018-06-23T04:16:42.729Z,13.02
2018-06-23T04:19:10.960Z,12.93
2018-06-23T04:21:39.210Z,12.97
2018-06-23T04:24:07.516Z,12.94
2018-06-23T04:26:36.219Z,12.97
2018-06-23T04:29:04.471Z,13.14
2018-06-23T04:31:32.762Z,13.15
2018-06-23T04:34:01.000Z,13.11
2018-06-23T04:36:29.292Z,13.04
2018-06-23T04:38:57.561Z,12.97
2018-06-23T04:41:25.763Z,13.00
2018-06-23T04:43:54.106Z,13.15
2018-06-23T04:46:22.345Z,13.10
2018-06-23T04:48:50.621Z,13.08
2018-06-23T04:51:19.821Z,13.17
2018-06-23T04:53:49.238Z,13.23
2018-06-23T04:56:17.822Z,13.01
2018-06-23T04:58:46.045Z,13.08
2018-06-23T05:01:14.388Z,13.19
2018-06-23T05:03:42.667Z,13.31
2018-06-23T05:06:11.012Z,13.22
2018-06-23T05:08:39.498Z,13.20
2018-06-23T05:11:08.499Z,13.31
2018-06-23T05:13:37.347Z,13.31
2018-06-23T05:16:06.107Z,13.29
2018-06-23T05:18:34.452Z,13.32
2018-06-23T05:21:02.873Z,13.37
2018-06-23T05:23:31.220Z,13.39
2018-06-23T05:25:59.480Z,13.36
2018-06-23T05:28:27.815Z,13.32
2018-06-23T05:30:56.081Z,13.28
2018-06-23T05:33:24.524Z,13.33
2018-06-23T05:35:53.344Z,13.31
2018-06-23T05:38:21.598Z,13.37
2018-06-23T05:40:50.561Z,13.46
2018-06-23T05:43:19.225Z,13.42
2018-06-23T05:45:47.455Z,13.34
2018-06-23T05:48:15.739Z,13.32
2018-06-23T05:50:44.161Z,13.46
2018-06-23T05:53:12.413Z,13.43
2018-06-23T05:55:40.702Z,13.43
2018-06-23T05:58:09.033Z,13.51
2018-06-23T06:00:37.704Z,13.43
2018-06-23T06:03:05.932Z,13.45
2018-06-23T06:05:34.234Z,13.60
2018-06-23T06:08:02.505Z,13.73
2018-06-23T06:10:30.863Z,13.61
2018-06-23T06:12:59.100Z,13.53
2018-06-23T06:15:27.378Z,13.61
2018-06-23T06:17:55.681Z,13.56
2018-06-23T06:20:24.064Z,13.67
2018-06-23T06:22:52.400Z,13.53
2018-06-23T06:25:21.696Z,13.54
2018-06-23T06:27:50.035Z,13.56
2018-06-23T06:30:18.290Z,13.64
2018-06-23T06:32:46.583Z,13.52
2018-06-23T06:35:14.846Z,13.55
2018-06-23T06:37:43.088Z,13.73
2018-06-23T06:40:11.412Z,13.78
2018-06-23T06:42:39.649Z,13.88
2018-06-23T06:45:08.076Z,13.94
2018-06-23T06:47:36.372Z,14.09
2018-06-23T06:50:05.060Z,14.03
2018-06-23T06:52:33.357Z,14.11
2018-06-23T06:55:01.707Z,14.04
2018-06-23T06:57:30.015Z,14.02
2018-06-23T06:59:58.235Z,14.16
2018-06-23T07:02:26.521Z,14.24
2018-06-23T07:04:54.778Z,14.12
2018-06-23T07:07:23.075Z,13.99
2018-06-23T07:09:51.312Z,14.13
2018-06-23T07:12:19.575Z,14.27
2018-06-23T07:14:47.867Z,14.23
2018-06-23T07:17:16.162Z,14.25
2018-06-23T07:19:44.504Z,14.31
2018-06-23T07:22:12.976Z,14.36
2018-06-23T07:24:41.425Z,14.49
2018-06-23T07:27:09.673Z,14.62
2018-06-23T07:29:38.017Z,14.61
2018-06-23T07:32:06.288Z,14.60
2018-06-23T07:34:34.666Z,14.61
2018-06-23T07:37:02.879Z,14.61
2018-06-23T07:39:31.119Z,14.50
2018-06-23T07:41:59.354Z,14.55
2018-06-23T07:44:27.621Z,14.79
2018-06-23T07:46:55.891Z,14.75
2018-06-23T07:49:24.159Z,14.74
2018-06-23T07:51:52.401Z,14.76
2018-06-23T07:54:20.614Z,14.93
2018-06-23T07:56:49.780Z,14.92
2018-06-23T07:59:18.029Z,14.90
2018-06-23T08:01:46.242Z,15.06
2018-06-23T08:04:14.517Z,15.13
2018-06-23T08:06:42.753Z,15.04
2018-06-23T08:09:11.241Z,14.97
2018-06-23T08:11:39.567Z,14.99
2018-06-23T08:14:07.803Z,15.14
2018-06-23T08:16:36.029Z,15.03
2018-06-23T08:19:04.418Z,15.12
2018-06-23T08:21:33.362Z,15.22
2018-06-23T08:24:01.870Z,15.22
2018-06-23T08:26:30.228Z,15.07
2018-06-23T08:28:58.413Z,15.35
2018-06-23T08:31:26.723Z,15.42
2018-06-23T08:33:55.022Z,15.29
2018-06-23T08:36:23.522Z,15.09
2018-06-23T08:38:51.766Z,15.12
2018-06-23T08:41:20.325Z,15.20
2018-06-23T08:43:48.629Z,15.33
2018-06-23T08:46:16.797Z,15.29
2018-06-23T08:48:45.096Z,15.22
2018-06-23T08:51:13.293Z,15.11
2018-06-23T08:53:41.626Z,14.98
2018-06-23T08:56:09.919Z,14.99
2018-06-23T08:58:38.139Z,14.97
2018-06-23T09:01:06.597Z,14.99
2018-06-23T09:03:34.928Z,14.97
2018-06-23T09:06:03.164Z,14.94
2018-06-23T09:08:31.407Z,15.03
2018-06-23T09:10:59.673Z,14.95
2018-06-23T09:13:27.908Z,14.74
2018-06-23T09:15:56.210Z,14.83
2018-06-23T09:18:24.438Z,14.97
2018-06-23T09:20:52.702Z,14.64
2018-06-23T09:23:20.964Z,14.74
2018-06-23T09:25:49.217Z,14.88
2018-06-23T09:28:17.427Z,15.02
2018-06-23T09:30:45.678Z,14.80
2018-06-23T09:33:14.579Z,14.89
2018-06-23T09:35:42.933Z,14.87
2018-06-23T09:38:11.197Z,15.04
2018-06-23T09:40:39.412Z,14.81
2018-06-23T09:43:07.699Z,14.95
2018-06-23T09:45:35.934Z,15.22
2018-06-23T09:48:04.185Z,15.25
2018-06-23T09:50:33.133Z,15.28
2018-06-23T09:53:01.407Z,15.44
2018-06-23T09:55:29.623Z,15.75
2018-06-23T09:57:57.842Z,15.52
2018-06-23T10:00:29.559Z,15.52
2018-06-23T10:02:59.982Z,15.50
2018-06-23T10:05:28.552Z,15.52
2018-06-23T10:07:57.151Z,15.34
2018-06-23T10:10:25.429Z,15.33
2018-06-23T10:12:53.678Z,15.21
2018-06-23T10:15:22.039Z,15.20
2018-06-23T10:17:50.364Z,15.09
2018-06-23T10:20:18.592Z,15.17
2018-06-23T10:22:46.997Z,15.25
2018-06-23T10:25:15.282Z,15.37
2018-06-23T10:27:43.622Z,15.57
2018-06-23T10:30:11.862Z,15.55
2018-06-23T10:32:40.127Z,15.50
2018-06-23T10:35:08.315Z,15.56
2018-06-23T10:37:37.187Z,15.77
2018-06-23T10:40:12.134Z,15.93
2018-06-23T10:42:40.697Z,15.88
2018-06-23T10:45:08.919Z,15.85
2018-06-23T10:47:37.239Z,15.85
2018-06-23T10:50:05.729Z,16.00
2018-06-23T10:52:34.068Z,15.95
2018-06-23T10:55:02.568Z,15.95
2018-06-23T10:57:30.819Z,16.02
2018-06-23T10:59:59.093Z,15.92
2018-06-23T11:02:27.318Z,15.99
2018-06-23T11:04:55.595Z,16.12
2018-06-23T11:07:23.802Z,16.03
2018-06-23T11:09:52.097Z,16.11
2018-06-23T11:12:20.589Z,16.03
2018-06-23T11:14:48.955Z,16.06
2018-06-23T11:17:17.962Z,15.99
2018-06-23T11:19:46.568Z,15.90
2018-06-23T11:22:15.139Z,15.94
2018-06-23T11:24:43.927Z,15.93
2018-06-23T11:29:47.520Z,16.03
2018-06-23T11:32:15.843Z,15.81
2018-06-23T11:34:44.452Z,15.91
2018-06-23T11:37:13.065Z,15.75
2018-06-23T11:39:41.948Z,15.65
2018-06-23T11:42:10.614Z,15.68
2018-06-23T11:44:39.217Z,15.76
2018-06-23T11:47:08.082Z,15.46
2018-06-23T11:49:44.197Z,15.81
2018-06-23T11:52:13.587Z,15.82
2018-06-23T11:54:41.811Z,15.96
2018-06-23T11:57:10.395Z,15.90
2018-06-23T11:59:38.723Z,15.90
2018-06-23T12:02:07.267Z,15.77
2018-06-23T12:04:35.568Z,15.80
2018-06-23T12:07:03.797Z,15.73
2018-06-23T12:09:32.047Z,15.58
2018-06-23T12:12:00.347Z,15.31
2018-06-23T12:14:28.629Z,15.35
2018-06-23T12:16:56.914Z,15.58
2018-06-23T12:19:25.195Z,15.55
2018-06-23T12:21:53.464Z,15.70
2018-06-23T12:24:21.676Z,15.66
2018-06-23T12:26:49.891Z,15.42
2018-06-23T12:29:18.431Z,15.18
2018-06-23T12:31:46.705Z,15.25
2018-06-23T12:34:14.965Z,15.47
2018-06-23T12:36:43.196Z,15.40
2018-06-23T12:39:12.266Z,15.34
2018-06-23T12:41:41.164Z,14.90
2018-06-23T12:44:09.715Z,15.26
2018-06-23T12:46:38.405Z,15.13
2018-06-23T12:49:06.726Z,15.50
2018-06-23T12:51:35.317Z,15.06
2018-06-23T12:54:03.598Z,15.25
2018-06-23T12:56:31.837Z,15.12
2018-06-23T12:59:00.090Z,15.45
2018-06-23T13:01:28.355Z,15.57
2018-06-23T13:03:56.738Z,15.34
2018-06-23T13:06:25.053Z,15.50
2018-06-23T13:08:53.301Z,15.47
2018-06-23T13:11:21.590Z,15.49
2018-06-23T13:13:50.049Z,15.61
2018-06-23T13:16:18.317Z,15.57
2018-06-23T13:18:46.640Z,15.62
2018-06-23T13:21:14.971Z,15.32
2018-06-23T13:23:43.285Z,15.65
2018-06-23T13:26:11.550Z,15.67
2018-06-23T13:28:39.795Z,15.75
2018-06-23T13:31:08.004Z,15.66
2018-06-23T13:33:36.247Z,15.66
2018-06-23T13:36:04.784Z,15.62
2018-06-23T13:38:33.140Z,15.69
2018-06-23T13:41:03.920Z,15.81
2018-06-23T13:43:32.208Z,15.82
2018-06-23T13:46:00.578Z,15.88
2018-06-23T13:48:28.789Z,15.75
2018-06-23T13:50:57.006Z,15.80
2018-06-23T13:53:25.533Z,15.77
2018-06-23T13:55:54.045Z,15.76
2018-06-23T13:58:22.372Z,15.58
2018-06-23T14:00:50.658Z,15.99
2018-06-23T14:03:19.093Z,15.51
2018-06-23T14:05:47.397Z,15.84
2018-06-23T14:08:15.674Z,15.82
2018-06-23T14:10:43.963Z,15.67
2018-06-23T14:13:12.235Z,15.48
2018-06-23T14:15:40.495Z,15.82
2018-06-23T14:18:08.784Z,15.58
2018-06-23T14:20:36.999Z,15.56
2018-06-23T14:23:05.273Z,15.61
2018-06-23T14:25:33.507Z,15.59
2018-06-23T14:28:01.770Z,15.43
2018-06-23T14:30:29.987Z,15.64
2018-06-23T14:32:58.195Z,15.45
2018-06-23T14:35:26.440Z,15.71
2018-06-23T14:37:54.716Z,15.79
2018-06-23T14:40:23.010Z,15.75
2018-06-23T14:42:51.233Z,15.68
2018-06-23T14:45:19.446Z,15.74
2018-06-23T14:47:47.663Z,15.76
2018-06-23T14:50:15.899Z,15.68
2018-06-23T14:52:44.264Z,15.58
2018-06-23T14:55:12.496Z,15.46
2018-06-23T14:57:40.871Z,15.71
2018-06-23T15:00:09.225Z,15.71
2018-06-23T15:02:37.470Z,15.75
2018-06-23T15:05:05.888Z,15.56
2018-06-23T15:07:34.070Z,15.54
2018-06-23T15:10:13.701Z,15.39
2018-06-23T15:12:53.284Z,15.47
2018-06-23T15:15:21.594Z,15.41
2018-06-23T15:17:49.801Z,15.50
2018-06-23T15:20:18.113Z,15.51
2018-06-23T15:22:46.336Z,15.39
2018-06-23T15:25:14.561Z,15.55
2018-06-23T15:27:42.815Z,15.36
2018-06-23T15:30:11.096Z,15.36
2018-06-23T15:32:39.414Z,15.23
2018-06-23T15:35:07.681Z,15.59
2018-06-23T15:37:35.945Z,15.40
2018-06-23T15:40:04.204Z,15.50
2018-06-23T15:42:32.427Z,15.38
2018-06-23T15:45:00.640Z,15.44
2018-06-23T15:47:28.940Z,15.39
2018-06-23T15:49:57.189Z,15.38
2018-06-23T15:52:25.441Z,15.53
2018-06-23T15:54:53.710Z,15.51
2018-06-23T15:57:21.962Z,15.57
2018-06-23T15:59:50.227Z,15.43
2018-06-23T16:02:18.485Z,15.52
2018-06-23T16:04:46.706Z,15.46
2018-06-23T16:07:14.970Z,15.54
2018-06-23T16:09:43.219Z,15.55
2018-06-23T16:12:11.521Z,15.48
2018-06-23T16:14:39.800Z,15.24
2018-06-23T16:17:08.072Z,15.42
2018-06-23T16:19:36.311Z,15.38
2018-06-23T16:22:04.561Z,15.41
2018-06-23T16:24:32.853Z,15.26
2018-06-23T16:27:01.353Z,15.28
2018-06-23T16:29:29.708Z,15.26
2018-06-23T16:31:58.049Z,15.52
2018-06-23T16:34:26.548Z,15.32
2018-06-23T16:36:54.756Z,15.43
2018-06-23T16:39:23.088Z,15.28
2018-06-23T16:41:51.322Z,15.32
2018-06-23T16:44:19.703Z,15.26
2018-06-23T16:46:47.980Z,15.41
2018-06-23T16:49:16.306Z,15.23
2018-06-23T16:51:44.681Z,15.35
2018-06-23T16:54:13.011Z,15.30
2018-06-23T16:56:41.376Z,15.20
2018-06-23T16:59:16.326Z,15.24
2018-06-23T17:01:44.657Z,15.25
2018-06-23T17:04:13.059Z,15.28
2018-06-23T17:06:41.461Z,15.22
2018-06-23T17:09:10.633Z,15.18
2018-06-23T17:11:39.260Z,15.03
2018-06-23T17:14:07.702Z,15.11
2018-06-23T17:16:36.025Z,15.14
2018-06-23T17:19:04.641Z,15.07
2018-06-23T17:21:32.991Z,15.04
2018-06-23T17:24:01.367Z,15.11
2018-06-23T17:26:29.606Z,14.95
2018-06-23T17:28:57.880Z,14.95
2018-06-23T17:31:26.165Z,15.15
2018-06-23T17:33:54.767Z,15.06
2018-06-23T17:36:23.025Z,15.20
2018-06-23T17:38:51.238Z,15.09
2018-06-23T17:41:19.492Z,15.06
2018-06-23T17:43:47.742Z,15.19
2018-06-23T17:46:16.196Z,15.36
2018-06-23T17:48:44.533Z,14.96
2018-06-23T17:51:12.865Z,15.14
2018-06-23T17:53:41.177Z,15.19
2018-06-23T17:56:09.463Z,14.93
2018-06-23T17:58:37.667Z,15.19
2018-06-23T18:01:05.959Z,15.02
2018-06-23T18:03:34.249Z,15.12
2018-06-23T18:06:02.492Z,15.17
2018-06-23T18:08:30.747Z,14.96
2018-06-23T18:10:58.975Z,15.02
2018-06-23T18:13:27.326Z,15.15
2018-06-23T18:15:55.506Z,15.03
2018-06-23T18:18:23.768Z,14.95
2018-06-23T18:20:52.004Z,15.00
2018-06-23T18:23:20.225Z,14.85
2018-06-23T18:25:48.478Z,15.09
2018-06-23T18:28:16.717Z,14.94
2018-06-23T18:30:44.959Z,14.98
2018-06-23T18:33:13.186Z,15.01
2018-06-23T18:35:41.487Z,14.93
2018-06-23T18:38:09.709Z,14.83
2018-06-23T18:40:38.009Z,15.00
2018-06-23T18:43:06.232Z,14.89
2018-06-23T18:45:34.534Z,14.97
2018-06-23T18:48:02.901Z,14.72
2018-06-23T18:50:31.178Z,14.93
2018-06-23T18:52:59.505Z,14.98
2018-06-23T18:55:27.780Z,14.91
2018-06-23T18:57:56.101Z,14.86
2018-06-23T19:00:24.559Z,14.71
2018-06-23T19:02:52.841Z,14.78
2018-06-23T19:05:21.203Z,14.80
2018-06-23T19:07:49.539Z,14.78
2018-06-23T19:10:17.857Z,14.61
2018-06-23T19:12:46.107Z,14.46
2018-06-23T19:15:14.491Z,14.66
2018-06-23T19:17:42.798Z,14.61
2018-06-23T19:20:11.263Z,14.63
2018-06-23T19:22:39.524Z,14.57
2018-06-23T19:25:07.813Z,14.60
2018-06-23T19:27:36.239Z,14.58
2018-06-23T19:30:05.218Z,14.51
2018-06-23T19:32:33.493Z,14.61
2018-06-23T19:35:01.795Z,14.50
2018-06-23T19:37:30.800Z,14.58
2018-06-23T19:39:59.492Z,14.60
2018-06-23T19:42:27.781Z,14.57
2018-06-23T19:44:56.097Z,14.62
2018-06-23T19:47:24.380Z,14.73
2018-06-23T19:49:52.699Z,14.43
2018-06-23T19:52:20.928Z,14.36
2018-06-23T19:54:49.283Z,14.40
2018-06-23T19:57:17.602Z,14.54
2018-06-23T19:59:45.904Z,14.34
2018-06-23T20:02:14.191Z,14.43
2018-06-23T20:04:42.564Z,14.34
2018-06-23T20:07:10.864Z,14.38
2018-06-23T20:09:39.163Z,14.30
2018-06-23T20:12:07.388Z,14.29
2018-06-23T20:14:35.648Z,14.40
2018-06-23T20:17:03.876Z,14.40
2018-06-23T20:19:32.091Z,14.40
2018-06-23T20:22:00.336Z,14.46
2018-06-23T20:24:28.610Z,14.40
2018-06-23T20:26:56.873Z,14.38
2018-06-23T20:29:25.097Z,14.46
2018-06-23T20:31:53.353Z,14.37
2018-06-23T20:34:21.621Z,14.24
2018-06-23T20:36:49.932Z,14.47
2018-06-23T20:39:18.233Z,14.31
2018-06-23T20:41:46.625Z,14.26
2018-06-23T20:44:15.175Z,14.41
2018-06-23T20:46:43.598Z,14.29
2018-06-23T20:49:11.871Z,14.30
2018-06-23T20:51:40.129Z,14.42
2018-06-23T20:54:08.525Z,14.16
2018-06-23T20:56:36.775Z,14.26
2018-06-23T20:59:05.066Z,14.30
2018-06-23T21:01:33.353Z,14.42
2018-06-23T21:04:01.621Z,14.25
2018-06-23T21:06:30.069Z,14.30
2018-06-23T21:08:58.398Z,14.45
2018-06-23T21:11:26.739Z,14.46
2018-06-23T21:13:55.777Z,14.39
2018-06-23T21:16:24.101Z,14.26
2018-06-23T21:18:52.410Z,14.13
2018-06-23T21:21:20.613Z,14.19
2018-06-23T21:23:48.948Z,14.29
2018-06-23T21:26:17.245Z,14.36
2018-06-23T21:28:45.606Z,14.26
2018-06-23T21:31:13.917Z,14.16
2018-06-23T21:33:42.194Z,14.34
2018-06-23T21:36:10.440Z,14.29
2018-06-23T21:38:38.816Z,14.10
2018-06-23T21:41:07.151Z,14.23
2018-06-23T21:43:35.380Z,14.36
2018-06-23T21:46:03.617Z,14.29
2018-06-23T21:48:31.838Z,14.18
2018-06-23T21:51:00.083Z,14.33
2018-06-23T21:53:28.324Z,14.36
2018-06-23T21:55:56.655Z,14.38
2018-06-23T21:58:24.892Z,14.32
2018-06-23T22:00:53.134Z,14.14
2018-06-23T22:03:21.609Z,14.06
2018-06-23T22:05:49.912Z,14.16
2018-06-23T22:08:18.265Z,14.00
2018-06-23T22:10:46.497Z,14.11
2018-06-23T22:13:14.769Z,14.26
2018-06-23T22:15:43.120Z,14.27
2018-06-23T22:18:11.415Z,14.13
2018-06-23T22:20:39.673Z,14.12
2018-06-23T22:23:07.915Z,14.08
2018-06-23T22:25:36.190Z,14.32
2018-06-23T22:28:04.448Z,14.40
2018-06-23T22:30:32.694Z,14.27
2018-06-23T22:33:00.914Z,14.16
2018-06-23T22:35:29.143Z,14.11
2018-06-23T22:37:57.361Z,14.22
2018-06-23T22:40:25.605Z,14.06
2018-06-23T22:42:53.824Z,14.17
2018-06-23T22:45:22.018Z,14.37
2018-06-23T22:47:50.260Z,14.23
2018-06-23T22:50:18.477Z,14.19
2018-06-23T22:52:46.727Z,14.14
2018-06-23T22:55:15.090Z,14.37
2018-06-23T22:57:43.365Z,14.34
2018-06-23T23:00:13.339Z,14.39
2018-06-23T23:02:41.882Z,14.49
2018-06-23T23:05:10.645Z,14.22
2018-06-23T23:07:39.314Z,14.37
2018-06-23T23:10:08.908Z,14.30
2018-06-23T23:12:37.548Z,14.28
2018-06-23T23:15:06.399Z,14.35
2018-06-23T23:17:34.644Z,14.27
2018-06-23T23:20:02.885Z,14.39
2018-06-23T23:22:31.582Z,14.27
2018-06-23T23:24:59.831Z,14.18
2018-06-23T23:27:28.089Z,14.45
2018-06-23T23:29:56.321Z,14.34
2018-06-23T23:32:24.616Z,14.27
2018-06-23T23:34:52.829Z,14.28
2018-06-23T23:37:21.227Z,14.10
2018-06-23T23:39:49.569Z,14.32
2018-06-23T23:42:17.828Z,14.36
2018-06-23T23:44:46.056Z,14.27
2018-06-23T23:47:14.337Z,14.33
2018-06-23T23:49:42.619Z,14.44
2018-06-23T23:52:10.986Z,14.45
2018-06-23T23:54:39.232Z,14.51
2018-06-23T23:57:07.484Z,14.38
2018-06-23T23:59:35.733Z,14.35
